DAL2990 KSAN-RJTT
Flight info
| Callsign | DAL2990 |
|---|---|
| Flight time | N/A |
| Altitude | 36000 |
| Route | PADRZ2 IKAYE DCT RZS DCT MCKEY DCT LIBBO DCT BRINY DCT ALCOA DCT DACEM DCT 42N130W 48N140W/N0465F380 53N150W DCT CDB/N0475F400 A342 NUZAN R220 NANAC Y810 AKRIT Y807 POLIX |
| Aircraft | A333/H-SDE3GHIJ2J3J5M1RVWXY/LB2D1 |
Departure
| Time | 2026-04-22 05:42 |
|---|---|
| Airport | San Diego International Airport (KSAN) |
Arrival
| Time | N/A |
|---|---|
| Airport | Tokyo Haneda International Airport (RJTT) |
| Time | Latitude | Longitude | Altitude | Speed | Heading |
|---|---|---|---|---|---|
| 2026-04-22 05:09 | 32.73476 | -117.20417 | 26 ft | 0 kts | 179° |
| 2026-04-22 05:31 | 32.73485 | -117.20417 | 26 ft | 3 kts | 175° |
| 2026-04-22 05:31 | 32.73503 | -117.20421 | 29 ft | 3 kts | 163° |
| 2026-04-22 05:31 | 32.73521 | -117.20427 | 27 ft | 3 kts | 151° |
| 2026-04-22 05:31 | 32.73535 | -117.20441 | 28 ft | 1 kts | 109° |
| 2026-04-22 05:32 | 32.73535 | -117.20442 | 28 ft | 0 kts | 109° |
| 2026-04-22 05:32 | 32.73530 | -117.20426 | 25 ft | 0 kts | 110° |
| 2026-04-22 05:33 | 32.73529 | -117.20422 | 25 ft | 0 kts | 110° |
| 2026-04-22 05:34 | 32.73528 | -117.20418 | 25 ft | 0 kts | 107° |
| 2026-04-22 05:34 | 32.73525 | -117.20401 | 25 ft | 6 kts | 100° |
| 2026-04-22 05:35 | 32.73521 | -117.20356 | 26 ft | 0 kts | 99° |
| 2026-04-22 05:35 | 32.73518 | -117.20339 | 30 ft | 7 kts | 103° |
| 2026-04-22 05:35 | 32.73512 | -117.20301 | 26 ft | 0 kts | 96° |
| 2026-04-22 05:36 | 32.73512 | -117.20269 | 27 ft | 12 kts | 88° |
| 2026-04-22 05:37 | 32.73503 | -117.20186 | 28 ft | 9 kts | 108° |
| 2026-04-22 05:37 | 32.73486 | -117.20118 | 29 ft | 8 kts | 105° |
| 2026-04-22 05:37 | 32.73481 | -117.20054 | 29 ft | 8 kts | 89° |
| 2026-04-22 05:37 | 32.73483 | -117.19978 | 30 ft | 13 kts | 88° |
| 2026-04-22 05:38 | 32.73469 | -117.19857 | 31 ft | 17 kts | 104° |
| 2026-04-22 05:38 | 32.73427 | -117.19685 | 30 ft | 24 kts | 106° |
| 2026-04-22 05:38 | 32.73379 | -117.19488 | 31 ft | 26 kts | 106° |
| 2026-04-22 05:38 | 32.73327 | -117.19277 | 27 ft | 28 kts | 106° |
| 2026-04-22 05:39 | 32.73274 | -117.19061 | 30 ft | 26 kts | 106° |
| 2026-04-22 05:39 | 32.73227 | -117.18865 | 31 ft | 24 kts | 106° |
| 2026-04-22 05:39 | 32.73183 | -117.18680 | 32 ft | 22 kts | 105° |
| 2026-04-22 05:39 | 32.73141 | -117.18506 | 29 ft | 22 kts | 106° |
| 2026-04-22 05:40 | 32.73098 | -117.18333 | 29 ft | 21 kts | 106° |
| 2026-04-22 05:40 | 32.73058 | -117.18166 | 27 ft | 21 kts | 106° |
| 2026-04-22 05:40 | 32.73018 | -117.17999 | 29 ft | 20 kts | 105° |
| 2026-04-22 05:40 | 32.72979 | -117.17840 | 27 ft | 20 kts | 107° |
| 2026-04-22 05:41 | 32.72957 | -117.17678 | 27 ft | 19 kts | 78° |
| 2026-04-22 05:41 | 32.73035 | -117.17650 | 27 ft | 13 kts | 303° |
| 2026-04-22 05:41 | 32.73062 | -117.17752 | 27 ft | 17 kts | 286° |
| 2026-04-22 05:41 | 32.73155 | -117.18125 | 27 ft | 78 kts | 286° |
| 2026-04-22 05:42 | 32.73360 | -117.18971 | 29 ft | 134 kts | 286° |
| 2026-04-22 05:42 | 32.73653 | -117.20190 | 237 ft | 163 kts | 285° |
| 2026-04-22 05:42 | 32.74120 | -117.21436 | 763 ft | 169 kts | 308° |
| 2026-04-22 05:42 | 32.74919 | -117.22514 | 1324 ft | 185 kts | 311° |
| 2026-04-22 05:43 | 32.75776 | -117.23763 | 1481 ft | 205 kts | 306° |
| 2026-04-22 05:43 | 32.76622 | -117.25214 | 1685 ft | 223 kts | 302° |
| 2026-04-22 05:43 | 32.77476 | -117.26843 | 1867 ft | 241 kts | 301° |
| 2026-04-22 05:43 | 32.78358 | -117.28621 | 2129 ft | 256 kts | 300° |
| 2026-04-22 05:44 | 32.79258 | -117.30483 | 2586 ft | 262 kts | 300° |
| 2026-04-22 05:44 | 32.80258 | -117.32302 | 3140 ft | 265 kts | 306° |
| 2026-04-22 05:44 | 32.81374 | -117.34064 | 3717 ft | 267 kts | 307° |
| 2026-04-22 05:44 | 32.82512 | -117.35818 | 4285 ft | 270 kts | 307° |
| 2026-04-22 05:45 | 32.83664 | -117.37592 | 4692 ft | 272 kts | 307° |
| 2026-04-22 05:45 | 32.84823 | -117.39380 | 4814 ft | 273 kts | 307° |
| 2026-04-22 05:45 | 32.85982 | -117.41173 | 4837 ft | 273 kts | 307° |
| 2026-04-22 05:45 | 32.87142 | -117.42972 | 5109 ft | 274 kts | 307° |
| 2026-04-22 05:46 | 32.88294 | -117.44760 | 5649 ft | 277 kts | 307° |
| 2026-04-22 05:46 | 32.89484 | -117.46608 | 6285 ft | 278 kts | 307° |
| 2026-04-22 05:46 | 32.90648 | -117.48416 | 6891 ft | 280 kts | 307° |
| 2026-04-22 05:46 | 32.91838 | -117.50267 | 7483 ft | 283 kts | 307° |
| 2026-04-22 05:47 | 32.93037 | -117.52133 | 8093 ft | 285 kts | 307° |
| 2026-04-22 05:47 | 32.94249 | -117.54020 | 8706 ft | 288 kts | 307° |
| 2026-04-22 05:47 | 32.95486 | -117.55947 | 9310 ft | 290 kts | 307° |
| 2026-04-22 05:47 | 32.96715 | -117.57863 | 9905 ft | 293 kts | 307° |
| 2026-04-22 05:48 | 32.97964 | -117.59812 | 10219 ft | 307 kts | 307° |
| 2026-04-22 05:48 | 32.99292 | -117.61886 | 10446 ft | 323 kts | 307° |
| 2026-04-22 05:48 | 33.00686 | -117.64063 | 10638 ft | 338 kts | 307° |
| 2026-04-22 05:48 | 33.02146 | -117.66343 | 10833 ft | 353 kts | 307° |
| 2026-04-22 05:49 | 33.03660 | -117.68710 | 11025 ft | 366 kts | 307° |
| 2026-04-22 05:49 | 33.05221 | -117.71151 | 11329 ft | 373 kts | 307° |
| 2026-04-22 05:49 | 33.06952 | -117.73475 | 11762 ft | 377 kts | 316° |
| 2026-04-22 05:49 | 33.08919 | -117.75571 | 12223 ft | 380 kts | 319° |
| 2026-04-22 05:50 | 33.10942 | -117.77624 | 12667 ft | 383 kts | 319° |
| 2026-04-22 05:50 | 33.12983 | -117.79686 | 13122 ft | 385 kts | 319° |
| 2026-04-22 05:50 | 33.15034 | -117.81762 | 13555 ft | 388 kts | 319° |
| 2026-04-22 05:50 | 33.17092 | -117.83852 | 13978 ft | 390 kts | 319° |
| 2026-04-22 05:51 | 33.19156 | -117.85975 | 14396 ft | 393 kts | 317° |
| 2026-04-22 05:51 | 33.21137 | -117.88237 | 14810 ft | 395 kts | 315° |
| 2026-04-22 05:51 | 33.23091 | -117.90563 | 15216 ft | 398 kts | 315° |
| 2026-04-22 05:51 | 33.25050 | -117.92909 | 15616 ft | 400 kts | 315° |
| 2026-04-22 05:52 | 33.27023 | -117.95269 | 16008 ft | 402 kts | 315° |
| 2026-04-22 05:52 | 33.29005 | -117.97640 | 16394 ft | 405 kts | 315° |
| 2026-04-22 05:52 | 33.30998 | -118.00022 | 16767 ft | 407 kts | 315° |
| 2026-04-22 05:52 | 33.33006 | -118.02425 | 17132 ft | 409 kts | 315° |
| 2026-04-22 05:53 | 33.35022 | -118.04838 | 17488 ft | 411 kts | 315° |